sensor_id;sensor_type;location;lat;lon;timestamp;pressure;altitude;pressure_sealevel;temperature;humidity
70758;BME280;59316;52.964;7.102;2023-02-11T00:04:00;103134.63;;;8.35;nan
70758;BME280;59316;52.964;7.102;2023-02-11T00:09:04;103140.75;;;8.32;nan
70758;BME280;59316;52.964;7.102;2023-02-11T00:14:08;103139.91;;;8.29;nan
70758;BME280;59316;52.964;7.102;2023-02-11T00:19:12;103124.16;;;8.38;nan
70758;BME280;59316;52.964;7.102;2023-02-11T00:24:15;103113.72;;;8.38;nan
70758;BME280;59316;52.964;7.102;2023-02-11T00:29:18;103084.28;;;8.31;nan
70758;BME280;59316;52.964;7.102;2023-02-11T00:34:21;103070.53;;;8.21;nan
70758;BME280;59316;52.964;7.102;2023-02-11T00:39:23;103075.72;;;8.23;nan
70758;BME280;59316;52.964;7.102;2023-02-11T00:44:26;103095.75;;;8.19;nan
70758;BME280;59316;52.964;7.102;2023-02-11T00:49:29;103100.22;;;8.08;nan
70758;BME280;59316;52.964;7.102;2023-02-11T00:54:32;103102.66;;;8.22;nan
70758;BME280;59316;52.964;7.102;2023-02-11T00:59:35;103085.28;;;8.21;nan
70758;BME280;59316;52.964;7.102;2023-02-11T01:04:38;103077.50;;;8.16;nan
70758;BME280;59316;52.964;7.102;2023-02-11T01:09:41;103096.69;;;8.12;nan
70758;BME280;59316;52.964;7.102;2023-02-11T01:14:44;103080.22;;;8.09;nan
70758;BME280;59316;52.964;7.102;2023-02-11T01:19:47;103102.84;;;8.08;nan
70758;BME280;59316;52.964;7.102;2023-02-11T01:24:50;103101.94;;;8.11;nan
70758;BME280;59316;52.964;7.102;2023-02-11T01:29:53;103063.75;;;8.08;nan
70758;BME280;59316;52.964;7.102;2023-02-11T01:34:56;103075.91;;;8.06;nan
70758;BME280;59316;52.964;7.102;2023-02-11T01:40:00;103064.66;;;8.05;nan
70758;BME280;59316;52.964;7.102;2023-02-11T01:50:46;103078.38;;;8.18;nan
70758;BME280;59316;52.964;7.102;2023-02-11T01:55:52;103062.69;;;8.20;nan
70758;BME280;59316;52.964;7.102;2023-02-11T02:00:55;103068.69;;;8.28;nan
70758;BME280;59316;52.964;7.102;2023-02-11T02:06:05;103068.59;;;8.33;nan
70758;BME280;59316;52.964;7.102;2023-02-11T02:11:20;103066.00;;;8.33;nan
70758;BME280;59316;52.964;7.102;2023-02-11T02:16:25;103054.66;;;8.35;nan
70758;BME280;59316;52.964;7.102;2023-02-11T02:43:09;103040.53;;;8.50;nan
70758;BME280;59316;52.964;7.102;2023-02-11T02:48:32;103023.25;;;8.45;nan
70758;BME280;59316;52.964;7.102;2023-02-11T03:10:26;103014.34;;;8.56;nan
70758;BME280;59316;52.964;7.102;2023-02-11T03:15:33;102996.19;;;8.50;nan
70758;BME280;59316;52.964;7.102;2023-02-11T03:20:40;103002.38;;;8.45;nan
70758;BME280;59316;52.964;7.102;2023-02-11T03:25:48;103010.16;;;8.48;nan
70758;BME280;59316;52.964;7.102;2023-02-11T03:36:47;103001.47;;;8.46;nan
70758;BME280;59316;52.964;7.102;2023-02-11T03:41:53;103002.38;;;8.45;nan
70758;BME280;59316;52.964;7.102;2023-02-11T03:46:57;103008.50;;;8.42;nan
70758;BME280;59316;52.964;7.102;2023-02-11T03:52:03;103001.44;;;8.49;nan
70758;BME280;59316;52.964;7.102;2023-02-11T03:57:08;103003.09;;;8.53;nan
70758;BME280;59316;52.964;7.102;2023-02-11T04:02:11;103015.22;;;8.55;nan
70758;BME280;59316;52.964;7.102;2023-02-11T04:07:14;103016.91;;;8.60;nan
70758;BME280;59316;52.964;7.102;2023-02-11T04:12:17;103020.41;;;8.59;nan
70758;BME280;59316;52.964;7.102;2023-02-11T04:17:20;103010.69;;;8.67;nan
70758;BME280;59316;52.964;7.102;2023-02-11T04:22:23;103009.84;;;8.66;nan
70758;BME280;59316;52.964;7.102;2023-02-11T04:27:26;103018.47;;;8.71;nan
70758;BME280;59316;52.964;7.102;2023-02-11T04:32:29;103015.84;;;8.70;nan
70758;BME280;59316;52.964;7.102;2023-02-11T04:37:31;103014.94;;;8.72;nan
70758;BME280;59316;52.964;7.102;2023-02-11T04:42:34;103009.78;;;8.69;nan
70758;BME280;59316;52.964;7.102;2023-02-11T04:47:37;103021.13;;;8.67;nan
70758;BME280;59316;52.964;7.102;2023-02-11T04:52:40;103019.31;;;8.72;nan
70758;BME280;59316;52.964;7.102;2023-02-11T04:57:43;103028.75;;;8.79;nan
70758;BME280;59316;52.964;7.102;2023-02-11T05:02:46;103027.06;;;8.77;nan
70758;BME280;59316;52.964;7.102;2023-02-11T05:07:49;103041.00;;;8.76;nan
70758;BME280;59316;52.964;7.102;2023-02-11T05:12:52;103034.81;;;8.81;nan
70758;BME280;59316;52.964;7.102;2023-02-11T05:17:57;103019.19;;;8.80;nan
70758;BME280;59316;52.964;7.102;2023-02-11T05:22:59;103013.03;;;8.82;nan
70758;BME280;59316;52.964;7.102;2023-02-11T05:28:03;103016.63;;;8.75;nan
70758;BME280;59316;52.964;7.102;2023-02-11T05:33:06;103023.66;;;8.73;nan
70758;BME280;59316;52.964;7.102;2023-02-11T05:38:09;103027.00;;;8.80;nan
70758;BME280;59316;52.964;7.102;2023-02-11T05:43:12;103027.94;;;8.76;nan
70758;BME280;59316;52.964;7.102;2023-02-11T05:48:15;103018.34;;;8.78;nan
70758;BME280;59316;52.964;7.102;2023-02-11T05:53:18;103022.81;;;8.71;nan
70758;BME280;59316;52.964;7.102;2023-02-11T05:58:21;103036.75;;;8.68;nan
70758;BME280;59316;52.964;7.102;2023-02-11T06:03:24;103034.16;;;8.68;nan
70758;BME280;59316;52.964;7.102;2023-02-11T06:08:27;103023.69;;;8.70;nan
70758;BME280;59316;52.964;7.102;2023-02-11T06:13:29;103023.66;;;8.73;nan
70758;BME280;59316;52.964;7.102;2023-02-11T06:18:32;103012.47;;;8.65;nan
70758;BME280;59316;52.964;7.102;2023-02-11T06:23:35;103018.63;;;8.61;nan
70758;BME280;59316;52.964;7.102;2023-02-11T06:28:39;103022.03;;;8.66;nan
70758;BME280;59316;52.964;7.102;2023-02-11T06:33:43;103015.44;;;8.45;nan
70758;BME280;59316;52.964;7.102;2023-02-11T06:38:46;103032.78;;;8.44;nan
70758;BME280;59316;52.964;7.102;2023-02-11T06:43:49;103024.09;;;8.45;nan
70758;BME280;59316;52.964;7.102;2023-02-11T06:48:54;103017.81;;;8.57;nan
70758;BME280;59316;52.964;7.102;2023-02-11T06:53:56;103026.63;;;8.48;nan
70758;BME280;59316;52.964;7.102;2023-02-11T06:58:59;103030.91;;;8.54;nan
70758;BME280;59316;52.964;7.102;2023-02-11T07:04:02;103019.53;;;8.58;nan
70758;BME280;59316;52.964;7.102;2023-02-11T07:09:05;103034.25;;;8.64;nan
70758;BME280;59316;52.964;7.102;2023-02-11T07:14:09;103032.56;;;8.61;nan
70758;BME280;59316;52.964;7.102;2023-02-11T07:19:12;103032.56;;;8.61;nan
70758;BME280;59316;52.964;7.102;2023-02-11T07:24:15;103037.66;;;8.66;nan
70758;BME280;59316;52.964;7.102;2023-02-11T07:29:18;103034.00;;;8.76;nan
70758;BME280;59316;52.964;7.102;2023-02-11T07:34:20;103020.00;;;8.83;nan
70758;BME280;59316;52.964;7.102;2023-02-11T07:39:23;103029.56;;;8.81;nan
70758;BME280;59316;52.964;7.102;2023-02-11T07:44:26;103044.28;;;8.87;nan
70758;BME280;59316;52.964;7.102;2023-02-11T07:49:29;103036.25;;;8.98;nan
70758;BME280;59316;52.964;7.102;2023-02-11T07:54:32;103046.66;;;9.01;nan
70758;BME280;59316;52.964;7.102;2023-02-11T07:59:35;103047.28;;;9.12;nan
70758;BME280;59316;52.964;7.102;2023-02-11T08:04:38;103036.84;;;9.12;nan
70758;BME280;59316;52.964;7.102;2023-02-11T08:09:41;103050.59;;;9.22;nan
70758;BME280;59316;52.964;7.102;2023-02-11T08:14:44;103066.25;;;9.24;nan
70758;BME280;59316;52.964;7.102;2023-02-11T08:19:47;103061.94;;;9.23;nan
70758;BME280;59316;52.964;7.102;2023-02-11T08:24:49;103079.41;;;9.19;nan
70758;BME280;59316;52.964;7.102;2023-02-11T08:29:53;103074.00;;;9.28;nan
70758;BME280;59316;52.964;7.102;2023-02-11T08:34:56;103076.53;;;9.31;nan
70758;BME280;59316;52.964;7.102;2023-02-11T08:39:59;103091.88;;;9.50;nan
70758;BME280;59316;52.964;7.102;2023-02-11T08:45:02;103104.91;;;9.51;nan
70758;BME280;59316;52.964;7.102;2023-02-11T08:50:06;103119.47;;;9.63;nan
70758;BME280;59316;52.964;7.102;2023-02-11T08:55:09;103123.66;;;9.72;nan
70758;BME280;59316;52.964;7.102;2023-02-11T09:00:12;103122.06;;;9.65;nan
70758;BME280;59316;52.964;7.102;2023-02-11T09:05:16;103121.97;;;9.69;nan
70758;BME280;59316;52.964;7.102;2023-02-11T09:10:19;103143.44;;;9.85;nan
70758;BME280;59316;52.964;7.102;2023-02-11T09:15:22;103154.88;;;9.81;nan
70758;BME280;59316;52.964;7.102;2023-02-11T09:20:25;103161.50;;;9.96;nan
70758;BME280;59316;52.964;7.102;2023-02-11T09:25:28;103162.59;;;9.86;nan
70758;BME280;59316;52.964;7.102;2023-02-11T09:30:31;103169.19;;;10.04;nan
70758;BME280;59316;52.964;7.102;2023-02-11T09:35:34;103162.19;;;10.06;nan
70758;BME280;59316;52.964;7.102;2023-02-11T09:40:41;103177.00;;;10.07;nan
70758;BME280;59316;52.964;7.102;2023-02-11T09:45:44;103174.88;;;10.25;nan
70758;BME280;59316;52.964;7.102;2023-02-11T09:50:52;103190.34;;;10.35;nan
70758;BME280;59316;52.964;7.102;2023-02-11T09:56:00;103190.94;;;10.50;nan
70758;BME280;59316;52.964;7.102;2023-02-11T10:11:51;103202.41;;;10.85;nan
70758;BME280;59316;52.964;7.102;2023-02-11T10:22:42;103215.53;;;11.20;nan
70758;BME280;59316;52.964;7.102;2023-02-11T10:27:48;103209.91;;;10.99;nan
70758;BME280;59316;52.964;7.102;2023-02-11T10:38:20;103229.00;;;11.04;nan
70758;BME280;59316;52.964;7.102;2023-02-11T10:43:24;103228.75;;;10.77;nan
70758;BME280;59316;52.964;7.102;2023-02-11T10:53:40;103231.47;;;11.10;nan
70758;BME280;59316;52.964;7.102;2023-02-11T10:58:44;103234.25;;;11.02;nan
70758;BME280;59316;52.964;7.102;2023-02-11T11:03:54;103239.78;;;11.28;nan
70758;BME280;59316;52.964;7.102;2023-02-11T11:08:57;103228.03;;;11.44;nan
70758;BME280;59316;52.964;7.102;2023-02-11T11:14:00;103231.97;;;11.61;nan
70758;BME280;59316;52.964;7.102;2023-02-11T11:24:17;103245.06;;;11.61;nan
70758;BME280;59316;52.964;7.102;2023-02-11T11:29:34;103253.13;;;11.88;nan
70758;BME280;59316;52.964;7.102;2023-02-11T11:34:59;103267.13;;;11.87;nan
70758;BME280;59316;52.964;7.102;2023-02-11T11:45:23;103267.47;;;11.38;nan
70758;BME280;59316;52.964;7.102;2023-02-11T11:55:38;103259.72;;;11.70;nan
70758;BME280;59316;52.964;7.102;2023-02-11T12:06:29;103249.63;;;11.52;nan
70758;BME280;59316;52.964;7.102;2023-02-11T12:23:06;103255.47;;;11.64;nan
70758;BME280;59316;52.964;7.102;2023-02-11T12:55:42;103256.59;;;11.88;nan
70758;BME280;59316;52.964;7.102;2023-02-11T13:00:55;103253.69;;;11.99;nan
70758;BME280;59316;52.964;7.102;2023-02-11T13:06:09;103253.06;;;12.22;nan
70758;BME280;59316;52.964;7.102;2023-02-11T13:11:23;103251.88;;;12.01;nan
70758;BME280;59316;52.964;7.102;2023-02-11T13:26:55;103252.81;;;11.98;nan
70758;BME280;59316;52.964;7.102;2023-02-11T13:32:07;103258.56;;;11.80;nan
70758;BME280;59316;52.964;7.102;2023-02-11T13:37:18;103248.00;;;11.83;nan
70758;BME280;59316;52.964;7.102;2023-02-11T13:42:45;103243.78;;;11.77;nan
70758;BME280;59316;52.964;7.102;2023-02-11T13:47:58;103252.50;;;11.43;nan
70758;BME280;59316;52.964;7.102;2023-02-11T13:53:08;103258.63;;;11.44;nan
70758;BME280;59316;52.964;7.102;2023-02-11T14:03:25;103263.88;;;11.42;nan
70758;BME280;59316;52.964;7.102;2023-02-11T14:08:30;103259.47;;;11.44;nan
70758;BME280;59316;52.964;7.102;2023-02-11T14:13:34;103262.69;;;11.56;nan
70758;BME280;59316;52.964;7.102;2023-02-11T14:18:57;103256.84;;;11.79;nan
70758;BME280;59316;52.964;7.102;2023-02-11T14:34:50;103269.84;;;11.82;nan
70758;BME280;59316;52.964;7.102;2023-02-11T14:45:25;103267.19;;;11.85;nan
70758;BME280;59316;52.964;7.102;2023-02-11T14:50:33;103279.97;;;11.96;nan
70758;BME280;59316;52.964;7.102;2023-02-11T14:55:49;103280.25;;;11.87;nan
70758;BME280;59316;52.964;7.102;2023-02-11T15:00:58;103288.53;;;11.70;nan
70758;BME280;59316;52.964;7.102;2023-02-11T15:11:19;103289.00;;;11.51;nan
70758;BME280;59316;52.964;7.102;2023-02-11T15:16:24;103299.72;;;11.42;nan
70758;BME280;59316;52.964;7.102;2023-02-11T15:21:29;103319.41;;;11.58;nan
70758;BME280;59316;52.964;7.102;2023-02-11T15:26:34;103308.16;;;11.53;nan
70758;BME280;59316;52.964;7.102;2023-02-11T15:31:37;103324.50;;;11.63;nan
70758;BME280;59316;52.964;7.102;2023-02-11T15:36:40;103319.44;;;11.57;nan
70758;BME280;59316;52.964;7.102;2023-02-11T15:41:43;103314.97;;;11.60;nan
70758;BME280;59316;52.964;7.102;2023-02-11T15:46:46;103327.13;;;11.64;nan
70758;BME280;59316;52.964;7.102;2023-02-11T15:51:50;103331.19;;;11.40;nan
70758;BME280;59316;52.964;7.102;2023-02-11T15:56:58;103335.56;;;11.40;nan
70758;BME280;59316;52.964;7.102;2023-02-11T16:02:08;103324.34;;;11.33;nan
70758;BME280;59316;52.964;7.102;2023-02-11T16:23:39;103321.69;;;10.97;nan
70758;BME280;59316;52.964;7.102;2023-02-11T16:28:42;103333.00;;;10.97;nan
70758;BME280;59316;52.964;7.102;2023-02-11T16:33:45;103349.69;;;10.93;nan
70758;BME280;59316;52.964;7.102;2023-02-11T16:38:48;103359.25;;;10.94;nan
70758;BME280;59316;52.964;7.102;2023-02-11T16:43:55;103355.88;;;10.89;nan
70758;BME280;59316;52.964;7.102;2023-02-11T16:49:05;103363.94;;;10.78;nan
70758;BME280;59316;52.964;7.102;2023-02-11T16:54:18;103382.25;;;10.78;nan
70758;BME280;59316;52.964;7.102;2023-02-11T16:59:22;103383.28;;;10.71;nan
70758;BME280;59316;52.964;7.102;2023-02-11T17:04:26;103395.53;;;10.69;nan
70758;BME280;59316;52.964;7.102;2023-02-11T17:09:31;103399.97;;;10.65;nan
70758;BME280;59316;52.964;7.102;2023-02-11T17:14:33;103410.50;;;10.62;nan
70758;BME280;59316;52.964;7.102;2023-02-11T17:19:36;103407.91;;;10.61;nan
70758;BME280;59316;52.964;7.102;2023-02-11T17:24:39;103417.59;;;10.56;nan
70758;BME280;59316;52.964;7.102;2023-02-11T17:29:42;103409.69;;;10.59;nan
70758;BME280;59316;52.964;7.102;2023-02-11T17:34:45;103412.28;;;10.60;nan
70758;BME280;59316;52.964;7.102;2023-02-11T17:39:48;103426.44;;;10.48;nan
70758;BME280;59316;52.964;7.102;2023-02-11T17:44:51;103423.09;;;10.40;nan
70758;BME280;59316;52.964;7.102;2023-02-11T17:49:54;103423.94;;;10.41;nan
70758;BME280;59316;52.964;7.102;2023-02-11T17:54:57;103425.81;;;10.34;nan
70758;BME280;59316;52.964;7.102;2023-02-11T18:00:00;103417.97;;;10.32;nan
70758;BME280;59316;52.964;7.102;2023-02-11T18:05:13;103416.31;;;10.28;nan
70758;BME280;59316;52.964;7.102;2023-02-11T18:10:17;103431.28;;;10.20;nan
70758;BME280;59316;52.964;7.102;2023-02-11T18:15:20;103446.88;;;10.25;nan
70758;BME280;59316;52.964;7.102;2023-02-11T18:20:24;103457.38;;;10.22;nan
70758;BME280;59316;52.964;7.102;2023-02-11T18:25:27;103450.56;;;10.13;nan
70758;BME280;59316;52.964;7.102;2023-02-11T18:30:30;103454.06;;;10.13;nan
70758;BME280;59316;52.964;7.102;2023-02-11T18:35:39;103460.28;;;10.04;nan
70758;BME280;59316;52.964;7.102;2023-02-11T18:40:43;103469.94;;;9.98;nan
70758;BME280;59316;52.964;7.102;2023-02-11T18:45:47;103476.03;;;10.00;nan
70758;BME280;59316;52.964;7.102;2023-02-11T18:50:51;103476.94;;;9.97;nan
70758;BME280;59316;52.964;7.102;2023-02-11T18:55:55;103483.13;;;9.90;nan
70758;BME280;59316;52.964;7.102;2023-02-11T19:00:58;103479.91;;;9.73;nan
70758;BME280;59316;52.964;7.102;2023-02-11T19:06:01;103477.75;;;9.38;nan
70758;BME280;59316;52.964;7.102;2023-02-11T19:11:04;103495.63;;;8.96;nan
70758;BME280;59316;52.964;7.102;2023-02-11T19:16:07;103506.47;;;8.56;nan
70758;BME280;59316;52.964;7.102;2023-02-11T19:21:12;103507.59;;;8.16;nan
70758;BME280;59316;52.964;7.102;2023-02-11T19:26:15;103511.19;;;8.01;nan
70758;BME280;59316;52.964;7.102;2023-02-11T19:31:18;103515.66;;;7.76;nan
70758;BME280;59316;52.964;7.102;2023-02-11T19:36:21;103526.06;;;7.71;nan
70758;BME280;59316;52.964;7.102;2023-02-11T19:41:24;103548.66;;;7.71;nan
70758;BME280;59316;52.964;7.102;2023-02-11T19:46:29;103540.94;;;7.51;nan
70758;BME280;59316;52.964;7.102;2023-02-11T19:51:33;103555.69;;;7.52;nan
70758;BME280;59316;52.964;7.102;2023-02-11T19:56:36;103560.84;;;7.61;nan
70758;BME280;59316;52.964;7.102;2023-02-11T20:01:39;103564.34;;;7.55;nan
70758;BME280;59316;52.964;7.102;2023-02-11T20:06:43;103574.75;;;7.62;nan
70758;BME280;59316;52.964;7.102;2023-02-11T20:11:46;103563.47;;;7.55;nan
70758;BME280;59316;52.964;7.102;2023-02-11T20:16:49;103561.75;;;7.51;nan
70758;BME280;59316;52.964;7.102;2023-02-11T20:21:52;103565.25;;;7.51;nan
70758;BME280;59316;52.964;7.102;2023-02-11T20:26:55;103562.66;;;7.45;nan
70758;BME280;59316;52.964;7.102;2023-02-11T20:31:58;103576.50;;;7.63;nan
70758;BME280;59316;52.964;7.102;2023-02-11T20:37:01;103564.22;;;7.86;nan
70758;BME280;59316;52.964;7.102;2023-02-11T20:42:07;103555.53;;;8.00;nan
70758;BME280;59316;52.964;7.102;2023-02-11T20:47:10;103564.09;;;8.16;nan
70758;BME280;59316;52.964;7.102;2023-02-11T20:52:13;103562.31;;;8.27;nan
70758;BME280;59316;52.964;7.102;2023-02-11T20:57:16;103563.16;;;8.31;nan
70758;BME280;59316;52.964;7.102;2023-02-11T21:02:19;103579.66;;;8.34;nan
70758;BME280;59316;52.964;7.102;2023-02-11T21:07:25;103586.56;;;8.38;nan
70758;BME280;59316;52.964;7.102;2023-02-11T21:12:28;103592.59;;;8.50;nan
70758;BME280;59316;52.964;7.102;2023-02-11T21:17:31;103595.19;;;8.47;nan
70758;BME280;59316;52.964;7.102;2023-02-11T21:22:34;103600.31;;;8.61;nan
70758;BME280;59316;52.964;7.102;2023-02-11T21:27:37;103591.59;;;8.66;nan
70758;BME280;59316;52.964;7.102;2023-02-11T21:32:41;103606.34;;;8.67;nan
70758;BME280;59316;52.964;7.102;2023-02-11T21:37:44;103606.41;;;8.61;nan
70758;BME280;59316;52.964;7.102;2023-02-11T21:42:47;103612.53;;;8.54;nan
70758;BME280;59316;52.964;7.102;2023-02-11T21:47:50;103625.56;;;8.60;nan
70758;BME280;59316;52.964;7.102;2023-02-11T21:52:53;103622.06;;;8.61;nan
70758;BME280;59316;52.964;7.102;2023-02-11T21:57:56;103626.38;;;8.62;nan
70758;BME280;59316;52.964;7.102;2023-02-11T22:02:59;103632.50;;;8.63;nan
70758;BME280;59316;52.964;7.102;2023-02-11T22:08:02;103638.53;;;8.65;nan
70758;BME280;59316;52.964;7.102;2023-02-11T22:13:05;103649.03;;;8.59;nan
70758;BME280;59316;52.964;7.102;2023-02-11T22:18:08;103641.22;;;8.57;nan
70758;BME280;59316;52.964;7.102;2023-02-11T22:23:11;103648.19;;;8.56;nan
70758;BME280;59316;52.964;7.102;2023-02-11T22:28:14;103657.72;;;8.64;nan
70758;BME280;59316;52.964;7.102;2023-02-11T22:33:22;103666.41;;;8.58;nan
70758;BME280;59316;52.964;7.102;2023-02-11T22:38:28;103667.28;;;8.62;nan
70758;BME280;59316;52.964;7.102;2023-02-11T22:43:32;103675.16;;;8.52;nan
70758;BME280;59316;52.964;7.102;2023-02-11T22:48:35;103670.81;;;8.51;nan
70758;BME280;59316;52.964;7.102;2023-02-11T22:53:38;103671.63;;;8.58;nan
70758;BME280;59316;52.964;7.102;2023-02-11T22:58:41;103673.44;;;8.45;nan
70758;BME280;59316;52.964;7.102;2023-02-11T23:03:44;103669.06;;;8.55;nan
70758;BME280;59316;52.964;7.102;2023-02-11T23:08:47;103672.56;;;8.49;nan
70758;BME280;59316;52.964;7.102;2023-02-11T23:13:51;103674.31;;;8.44;nan
70758;BME280;59316;52.964;7.102;2023-02-11T23:18:54;103679.56;;;8.43;nan
70758;BME280;59316;52.964;7.102;2023-02-11T23:24:01;103685.63;;;8.46;nan
70758;BME280;59316;52.964;7.102;2023-02-11T23:29:06;103685.63;;;8.46;nan
70758;BME280;59316;52.964;7.102;2023-02-11T23:34:09;103689.13;;;8.44;nan
70758;BME280;59316;52.964;7.102;2023-02-11T23:39:15;103696.09;;;8.37;nan
70758;BME280;59316;52.964;7.102;2023-02-11T23:44:18;103687.44;;;8.32;nan
70758;BME280;59316;52.964;7.102;2023-02-11T23:49:21;103694.44;;;8.22;nan
70758;BME280;59316;52.964;7.102;2023-02-11T23:54:24;103700.53;;;8.19;nan
70758;BME280;59316;52.964;7.102;2023-02-11T23:59:28;103703.13;;;8.18;nan
